Airfield :
LOGIN :

Register | Disclaimer

   EN    FR    IT 

 










Legend :    VFR   Marginal VFR   IFR   Intensive IFR   Very Intensive IFR
Visi :
Ceiling :
>= 8 km
>= 3000ft
5 to 8 km
1000 to 3000 ft
1500m to 5 km
500 to 1000 ft
800 to 1500m
200 to 500 ft
< 800m
< 200 ft
Symbols :   Thunderstorms  Fog  Heavy snow  Heavy precipitations  Wind > 20 kt
SIGMETs :     Misc.  Thunderstorms  Icing  Turbulence  Mountain Waves  Volcanic Ashes






- Airport Elevation : 348 ft
- IATA code : TSR


LRTR - Timisoara

CURRENT METAR :
  • 281630Z 18005KT 4000 BR OVC003 17/17 Q1019

EXPIRED METARs :
  • 281600Z 18005KT 2500 -RA BR OVC005 17/17 Q1018
  • 281530Z 19004KT 2300 -RA BR BKN004 OVC017 17/17 Q1018
  • 281500Z 20005KT 2000 -RA BR BKN003 OVC017 17/17 Q1018
  • 281430Z 20005KT 2500 BR BKN003 OVC020 17/17 Q1018
  • 281400Z 21006KT 3000 BR SCT003 BKN005 OVC020 17/17 Q1018

TAF TAF LRTR
Valid from the 28 at 12:00 until the 29 at 12:00 UTC


281100Z 2812/2912 21008KT 3000 -RA BR BKN002 OVC015
BECMG 2813/2815 7000 NSW BKN010 BKN030
TEMPO 2815/2818 SCT015 BKN040
BECMG 2819/2821 3000 BR BKN005
TEMPO 2821/2901 0800 FG BKN002
BECMG 2901/2903 5000 -RA BKN010 OVC035
BECMG 2907/2909 9999 NSW BKN035



MET'MAP, your aeronautical weather chart ! - Copyright ORBIFLY December 2007 - Disclaimer

ORBIFLY MET'MAP TEAM :

Programming & Development : Alexandra Zaïnal
Concept & original design : Baudouin d'Aumeries
Assistance for programming : Marc-Olivier Méhu
Technical & hardware support : Manuel Goepfert

Contact : metmap@orbifly.com




SOURCES & CREDITS :

   NOAA